createdAt,value
2022-09-15T00:18:32.556Z,23.4
2022-09-15T00:48:32.516Z,23.3
2022-09-15T01:18:32.503Z,23.3
2022-09-15T01:48:32.468Z,23.3
2022-09-15T02:18:32.501Z,23.2
2022-09-15T02:48:32.479Z,23.1
2022-09-15T03:18:32.466Z,23.1
2022-09-15T03:48:32.504Z,23.1
2022-09-15T04:18:32.564Z,23.1
2022-09-15T04:48:32.503Z,23.0
2022-09-15T05:18:32.458Z,23.1
2022-09-15T05:48:32.578Z,23.2
2022-09-15T06:18:32.460Z,23.2
2022-09-15T06:48:32.488Z,23.2
2022-09-15T07:18:32.444Z,23.3
2022-09-15T07:48:32.464Z,23.3
2022-09-15T08:18:32.460Z,23.3
2022-09-15T08:48:32.544Z,23.3
2022-09-15T09:18:32.426Z,23.3
2022-09-15T09:48:32.460Z,23.3
2022-09-15T10:18:32.441Z,23.3
2022-09-15T10:48:32.473Z,23.1
2022-09-15T11:18:32.424Z,23.1
2022-09-15T11:48:32.416Z,23.1
2022-09-15T12:18:32.424Z,23.1
2022-09-15T12:48:32.429Z,23.1
2022-09-15T13:18:32.400Z,23.0
2022-09-15T13:48:32.420Z,23.0
2022-09-15T14:18:32.461Z,23.0
2022-09-15T14:48:32.555Z,23.0
2022-09-15T15:18:32.490Z,22.9
2022-09-15T15:48:32.474Z,23.1
2022-09-15T16:18:32.418Z,23.2
2022-09-15T16:48:32.367Z,23.1
2022-09-15T17:18:32.393Z,23.1
2022-09-15T17:48:32.394Z,23.1
2022-09-15T18:18:32.402Z,22.9
2022-09-15T18:48:32.403Z,22.8
2022-09-15T19:18:32.405Z,22.7
2022-09-15T19:48:32.516Z,22.7
2022-09-15T20:18:32.407Z,22.7
2022-09-15T20:48:32.387Z,22.6
2022-09-15T21:18:32.396Z,22.6
2022-09-15T21:48:32.376Z,22.6
2022-09-15T22:18:32.373Z,22.6
2022-09-15T22:48:32.371Z,22.6
2022-09-15T23:18:32.355Z,22.5
2022-09-15T23:48:32.369Z,22.5
